Winnebago Heights, Iowa
Current Conditions -  °F | °C
As of 8:53 PM on Wednesday 26 Nov 2014 (Local Time) from KMCW Reporting Station
Overcast Overcast  
Wind Chill: -15°   Ceiling: 1300
Heat Index: -7°   Visibility: 10mi
Dew Point: -8°   Wind: 18mph
Humidity: 89%   Direction: 320°NW
Pressure: 30.31"   Gusts: NA
Location:  43.1451°N, 93.1385°W
Report Text: KMCW 270253Z AUTO 32016KT 10SM OVC013 M07/M08 A3031 RMK AO2 SLP277 60000 T10671083 53020
Loading
Personal Weather Stations






























Interactive Weather Map New forecast layout! Learn more

10-Day Weather Forecast

Advertisements
Track Severe Weather on mobile